This is the latest recevied weather packets stored in our database for station/object N0ZRD-10. If no packets are shown the sender has not sent any weather packets the latest 10 day(s).
| Time | Temp. | Humidity | Pressure | Rain* | Wind** | Luminosity | Snow |
|---|---|---|---|---|---|---|---|
| 1777574086 | 6.67° C | 36% | - | 0 mm | - | - | - |
| 1777573484 | 6.67° C | 34% | - | 0 mm | - | - | - |
| 1777572884 | 5.56° C | 39% | - | 0 mm | - | - | - |
| 1777572283 | 6.67° C | 36% | - | 0 mm | - | - | - |
| 1777571682 | 5° C | 40% | - | 0 mm | - | - | - |
| 1777571080 | 5° C | 40% | - | 0 mm | - | - | - |
| 1777570480 | 4.44° C | 43% | - | 0 mm | - | - | - |
| 1777569879 | 5° C | 41% | - | 0 mm | - | - | - |
| 1777569278 | 4.44° C | 43% | - | 0 mm | - | - | - |
| 1777568676 | 4.44° C | 42% | - | 0 mm | - | - | - |
| 1777568075 | 5° C | 39% | - | 0 mm | - | - | - |
| 1777566872 | 3.33° C | 43% | - | 0 mm | - | - | - |
| 1777563266 | 2.78° C | 46% | - | 0 mm | - | - | - |
| 1777562664 | 3.33° C | 42% | - | 0 mm | - | - | - |
| 1777562064 | 3.33° C | 44% | - | 0 mm | - | - | - |
| 1777561516 | 3.33° C | 45% | - | 0 mm | - | - | - |
| 1777561463 | 3.33° C | 45% | - | 0 mm | - | - | - |
| 1777560862 | 2.22° C | 45% | - | 0 mm | - | - | - |
| 1777560261 | 2.78° C | 50% | - | 0 mm | - | - | - |
| 1777559660 | 2.22° C | 57% | - | 0 mm | - | - | - |
| 1777559058 | 2.22° C | 56% | - | 0 mm | - | - | - |
| 1777558458 | 2.22° C | 56% | - | 0 mm | - | - | - |
| 1777556650 | 2.22° C | 60% | - | 0 mm | - | - | - |
| 1777556049 | 2.22° C | 57% | - | 0 mm | - | - | - |
| 1777554847 | 1.67° C | 61% | - | 0 mm | - | - | - |
* Rain latest hour (hover to see other rain measurements)
** Current wind speed in m/s (hover to see current wind gust speed)